sensor_id;sensor_type;location;lat;lon;timestamp;P1;durP1;ratioP1;P2;durP2;ratioP2
21959;SDS011;11144;43.030;25.108;2024-03-17T00:00:02;16.50;;;7.13;;
21959;SDS011;11144;43.030;25.108;2024-03-17T00:01:36;9.93;;;6.40;;
21959;SDS011;11144;43.030;25.108;2024-03-17T00:03:09;10.45;;;6.10;;
21959;SDS011;11144;43.030;25.108;2024-03-17T00:04:40;12.45;;;7.25;;
21959;SDS011;11144;43.030;25.108;2024-03-17T00:06:13;14.45;;;7.72;;
21959;SDS011;11144;43.030;25.108;2024-03-17T00:07:45;17.40;;;8.07;;
21959;SDS011;11144;43.030;25.108;2024-03-17T00:09:17;16.58;;;9.75;;
21959;SDS011;11144;43.030;25.108;2024-03-17T00:10:49;15.40;;;7.35;;
21959;SDS011;11144;43.030;25.108;2024-03-17T00:12:22;13.70;;;8.27;;
21959;SDS011;11144;43.030;25.108;2024-03-17T00:13:53;12.57;;;7.15;;
21959;SDS011;11144;43.030;25.108;2024-03-17T00:15:25;11.10;;;7.20;;
21959;SDS011;11144;43.030;25.108;2024-03-17T00:16:58;14.75;;;7.70;;
21959;SDS011;11144;43.030;25.108;2024-03-17T00:18:30;16.15;;;8.10;;
21959;SDS011;11144;43.030;25.108;2024-03-17T00:20:02;12.88;;;7.75;;
21959;SDS011;11144;43.030;25.108;2024-03-17T00:21:39;13.63;;;8.48;;
21959;SDS011;11144;43.030;25.108;2024-03-17T00:23:10;15.10;;;8.82;;
21959;SDS011;11144;43.030;25.108;2024-03-17T00:24:43;18.10;;;9.02;;
21959;SDS011;11144;43.030;25.108;2024-03-17T00:26:15;13.85;;;8.23;;
21959;SDS011;11144;43.030;25.108;2024-03-17T00:27:47;13.02;;;7.75;;
21959;SDS011;11144;43.030;25.108;2024-03-17T00:29:20;14.00;;;7.25;;
21959;SDS011;11144;43.030;25.108;2024-03-17T00:30:52;13.15;;;7.22;;
21959;SDS011;11144;43.030;25.108;2024-03-17T00:32:26;11.00;;;7.03;;
21959;SDS011;11144;43.030;25.108;2024-03-17T00:33:57;13.35;;;8.25;;
21959;SDS011;11144;43.030;25.108;2024-03-17T00:35:28;12.27;;;6.65;;
21959;SDS011;11144;43.030;25.108;2024-03-17T00:37:01;11.90;;;6.93;;
21959;SDS011;11144;43.030;25.108;2024-03-17T00:38:33;10.73;;;6.43;;
21959;SDS011;11144;43.030;25.108;2024-03-17T00:40:05;10.27;;;6.28;;
21959;SDS011;11144;43.030;25.108;2024-03-17T00:41:38;9.45;;;5.80;;
21959;SDS011;11144;43.030;25.108;2024-03-17T00:43:09;11.65;;;6.35;;
21959;SDS011;11144;43.030;25.108;2024-03-17T00:44:42;9.43;;;5.97;;
21959;SDS011;11144;43.030;25.108;2024-03-17T00:46:14;9.18;;;5.85;;
21959;SDS011;11144;43.030;25.108;2024-03-17T00:47:48;10.77;;;6.70;;
21959;SDS011;11144;43.030;25.108;2024-03-17T00:49:20;9.95;;;6.80;;
21959;SDS011;11144;43.030;25.108;2024-03-17T00:50:55;13.80;;;7.80;;
21959;SDS011;11144;43.030;25.108;2024-03-17T00:52:27;16.98;;;9.88;;
21959;SDS011;11144;43.030;25.108;2024-03-17T00:53:58;14.55;;;7.50;;
21959;SDS011;11144;43.030;25.108;2024-03-17T00:55:31;12.25;;;8.07;;
21959;SDS011;11144;43.030;25.108;2024-03-17T00:57:02;10.88;;;7.18;;
21959;SDS011;11144;43.030;25.108;2024-03-17T00:58:33;10.70;;;7.03;;
21959;SDS011;11144;43.030;25.108;2024-03-17T01:00:06;12.55;;;7.05;;
21959;SDS011;11144;43.030;25.108;2024-03-17T01:01:41;11.77;;;7.20;;
21959;SDS011;11144;43.030;25.108;2024-03-17T01:03:16;12.70;;;7.88;;
21959;SDS011;11144;43.030;25.108;2024-03-17T01:04:49;12.85;;;8.00;;
21959;SDS011;11144;43.030;25.108;2024-03-17T01:06:20;12.43;;;7.60;;
21959;SDS011;11144;43.030;25.108;2024-03-17T01:07:51;10.95;;;7.53;;
21959;SDS011;11144;43.030;25.108;2024-03-17T01:09:24;14.27;;;8.18;;
21959;SDS011;11144;43.030;25.108;2024-03-17T01:10:55;18.00;;;10.27;;
21959;SDS011;11144;43.030;25.108;2024-03-17T01:12:29;18.08;;;9.77;;
21959;SDS011;11144;43.030;25.108;2024-03-17T01:14:00;15.20;;;9.30;;
21959;SDS011;11144;43.030;25.108;2024-03-17T01:15:32;18.17;;;10.05;;
21959;SDS011;11144;43.030;25.108;2024-03-17T01:17:04;15.38;;;8.38;;
21959;SDS011;11144;43.030;25.108;2024-03-17T01:18:37;12.73;;;7.82;;
21959;SDS011;11144;43.030;25.108;2024-03-17T01:20:10;11.85;;;7.45;;
21959;SDS011;11144;43.030;25.108;2024-03-17T01:21:42;19.23;;;10.40;;
21959;SDS011;11144;43.030;25.108;2024-03-17T01:23:13;24.88;;;13.63;;
21959;SDS011;11144;43.030;25.108;2024-03-17T01:24:45;41.60;;;17.33;;
21959;SDS011;11144;43.030;25.108;2024-03-17T01:26:17;32.15;;;14.88;;
21959;SDS011;11144;43.030;25.108;2024-03-17T01:27:48;25.92;;;12.00;;
21959;SDS011;11144;43.030;25.108;2024-03-17T01:29:21;28.63;;;13.57;;
21959;SDS011;11144;43.030;25.108;2024-03-17T01:30:52;17.75;;;9.40;;
21959;SDS011;11144;43.030;25.108;2024-03-17T01:32:24;15.45;;;8.25;;
21959;SDS011;11144;43.030;25.108;2024-03-17T01:33:57;27.60;;;14.45;;
21959;SDS011;11144;43.030;25.108;2024-03-17T01:35:29;21.55;;;10.38;;
21959;SDS011;11144;43.030;25.108;2024-03-17T01:37:01;16.05;;;9.20;;
21959;SDS011;11144;43.030;25.108;2024-03-17T01:38:32;11.25;;;7.63;;
21959;SDS011;11144;43.030;25.108;2024-03-17T01:40:05;14.90;;;7.75;;
21959;SDS011;11144;43.030;25.108;2024-03-17T01:41:39;13.35;;;8.10;;
21959;SDS011;11144;43.030;25.108;2024-03-17T01:43:11;16.83;;;9.18;;
21959;SDS011;11144;43.030;25.108;2024-03-17T01:44:43;11.85;;;7.18;;
21959;SDS011;11144;43.030;25.108;2024-03-17T01:46:15;14.40;;;8.07;;
21959;SDS011;11144;43.030;25.108;2024-03-17T01:47:48;15.18;;;8.30;;
21959;SDS011;11144;43.030;25.108;2024-03-17T01:49:21;14.63;;;8.13;;
21959;SDS011;11144;43.030;25.108;2024-03-17T01:50:55;12.80;;;7.65;;
21959;SDS011;11144;43.030;25.108;2024-03-17T01:52:27;12.25;;;7.72;;
21959;SDS011;11144;43.030;25.108;2024-03-17T01:53:59;12.63;;;7.15;;
21959;SDS011;11144;43.030;25.108;2024-03-17T01:55:30;16.08;;;8.70;;
21959;SDS011;11144;43.030;25.108;2024-03-17T01:57:02;15.07;;;8.32;;
21959;SDS011;11144;43.030;25.108;2024-03-17T01:58:35;15.20;;;8.02;;
21959;SDS011;11144;43.030;25.108;2024-03-17T02:00:07;16.13;;;8.48;;
21959;SDS011;11144;43.030;25.108;2024-03-17T02:01:40;15.73;;;7.82;;
21959;SDS011;11144;43.030;25.108;2024-03-17T02:03:12;17.50;;;8.82;;
21959;SDS011;11144;43.030;25.108;2024-03-17T02:04:45;15.50;;;9.88;;
21959;SDS011;11144;43.030;25.108;2024-03-17T02:06:18;15.43;;;8.93;;
21959;SDS011;11144;43.030;25.108;2024-03-17T02:07:49;17.80;;;8.93;;
21959;SDS011;11144;43.030;25.108;2024-03-17T02:09:22;16.20;;;9.15;;
21959;SDS011;11144;43.030;25.108;2024-03-17T02:10:53;13.85;;;8.45;;
21959;SDS011;11144;43.030;25.108;2024-03-17T02:12:26;16.30;;;9.23;;
21959;SDS011;11144;43.030;25.108;2024-03-17T02:13:57;14.93;;;8.30;;
21959;SDS011;11144;43.030;25.108;2024-03-17T02:15:31;14.23;;;8.80;;
21959;SDS011;11144;43.030;25.108;2024-03-17T02:17:02;15.18;;;9.45;;
21959;SDS011;11144;43.030;25.108;2024-03-17T02:18:35;14.77;;;8.98;;
21959;SDS011;11144;43.030;25.108;2024-03-17T02:20:08;17.58;;;9.48;;
21959;SDS011;11144;43.030;25.108;2024-03-17T02:21:41;17.17;;;8.80;;
21959;SDS011;11144;43.030;25.108;2024-03-17T02:23:14;35.40;;;15.15;;
21959;SDS011;11144;43.030;25.108;2024-03-17T02:24:45;36.08;;;14.70;;
21959;SDS011;11144;43.030;25.108;2024-03-17T02:26:18;26.48;;;12.57;;
21959;SDS011;11144;43.030;25.108;2024-03-17T02:27:49;29.20;;;13.57;;
21959;SDS011;11144;43.030;25.108;2024-03-17T02:29:21;27.42;;;13.43;;
21959;SDS011;11144;43.030;25.108;2024-03-17T02:30:53;29.40;;;13.02;;
21959;SDS011;11144;43.030;25.108;2024-03-17T02:32:24;19.00;;;10.00;;
21959;SDS011;11144;43.030;25.108;2024-03-17T02:33:58;18.52;;;10.43;;
21959;SDS011;11144;43.030;25.108;2024-03-17T02:35:30;16.27;;;9.57;;
21959;SDS011;11144;43.030;25.108;2024-03-17T02:37:02;14.73;;;8.52;;
21959;SDS011;11144;43.030;25.108;2024-03-17T02:38:37;13.80;;;8.27;;
21959;SDS011;11144;43.030;25.108;2024-03-17T02:40:29;14.15;;;8.40;;
21959;SDS011;11144;43.030;25.108;2024-03-17T02:42:01;14.68;;;7.97;;
21959;SDS011;11144;43.030;25.108;2024-03-17T02:43:35;18.40;;;9.15;;
21959;SDS011;11144;43.030;25.108;2024-03-17T02:45:07;18.70;;;9.32;;
21959;SDS011;11144;43.030;25.108;2024-03-17T02:46:40;20.25;;;11.25;;
21959;SDS011;11144;43.030;25.108;2024-03-17T02:48:12;21.90;;;11.55;;
21959;SDS011;11144;43.030;25.108;2024-03-17T02:49:46;23.83;;;12.15;;
21959;SDS011;11144;43.030;25.108;2024-03-17T02:51:21;19.38;;;9.95;;
21959;SDS011;11144;43.030;25.108;2024-03-17T02:52:55;17.98;;;9.77;;
21959;SDS011;11144;43.030;25.108;2024-03-17T02:54:27;16.40;;;9.70;;
21959;SDS011;11144;43.030;25.108;2024-03-17T02:56:00;16.23;;;9.75;;
21959;SDS011;11144;43.030;25.108;2024-03-17T02:57:31;16.25;;;8.55;;
21959;SDS011;11144;43.030;25.108;2024-03-17T02:59:04;16.35;;;9.15;;
21959;SDS011;11144;43.030;25.108;2024-03-17T03:00:36;15.43;;;9.00;;
21959;SDS011;11144;43.030;25.108;2024-03-17T03:02:09;18.83;;;10.15;;
21959;SDS011;11144;43.030;25.108;2024-03-17T03:03:41;18.38;;;8.82;;
21959;SDS011;11144;43.030;25.108;2024-03-17T03:05:12;15.45;;;8.25;;
21959;SDS011;11144;43.030;25.108;2024-03-17T03:06:46;12.57;;;8.23;;
21959;SDS011;11144;43.030;25.108;2024-03-17T03:08:18;19.15;;;8.57;;
21959;SDS011;11144;43.030;25.108;2024-03-17T03:09:52;16.60;;;9.05;;
21959;SDS011;11144;43.030;25.108;2024-03-17T03:11:24;19.50;;;9.13;;
21959;SDS011;11144;43.030;25.108;2024-03-17T03:12:56;15.93;;;8.68;;
21959;SDS011;11144;43.030;25.108;2024-03-17T03:14:29;15.20;;;7.95;;
21959;SDS011;11144;43.030;25.108;2024-03-17T03:16:00;14.65;;;7.75;;
21959;SDS011;11144;43.030;25.108;2024-03-17T03:17:33;15.68;;;8.55;;
21959;SDS011;11144;43.030;25.108;2024-03-17T03:19:04;25.40;;;11.85;;
21959;SDS011;11144;43.030;25.108;2024-03-17T03:20:37;22.52;;;11.60;;
21959;SDS011;11144;43.030;25.108;2024-03-17T03:22:08;24.45;;;11.73;;
21959;SDS011;11144;43.030;25.108;2024-03-17T03:23:40;17.33;;;10.77;;
21959;SDS011;11144;43.030;25.108;2024-03-17T03:25:13;18.88;;;11.10;;
21959;SDS011;11144;43.030;25.108;2024-03-17T03:26:46;22.40;;;11.15;;
21959;SDS011;11144;43.030;25.108;2024-03-17T03:28:17;14.35;;;8.65;;
21959;SDS011;11144;43.030;25.108;2024-03-17T03:29:50;15.27;;;8.40;;
21959;SDS011;11144;43.030;25.108;2024-03-17T03:31:21;13.35;;;7.93;;
21959;SDS011;11144;43.030;25.108;2024-03-17T03:32:54;13.93;;;8.90;;
21959;SDS011;11144;43.030;25.108;2024-03-17T03:34:25;14.02;;;7.63;;
21959;SDS011;11144;43.030;25.108;2024-03-17T03:35:59;14.80;;;8.02;;
21959;SDS011;11144;43.030;25.108;2024-03-17T03:37:37;15.35;;;9.05;;
21959;SDS011;11144;43.030;25.108;2024-03-17T03:39:09;13.98;;;8.27;;
21959;SDS011;11144;43.030;25.108;2024-03-17T03:40:43;18.33;;;9.63;;
21959;SDS011;11144;43.030;25.108;2024-03-17T03:42:18;15.55;;;9.00;;
21959;SDS011;11144;43.030;25.108;2024-03-17T03:43:49;15.38;;;8.00;;
21959;SDS011;11144;43.030;25.108;2024-03-17T03:45:22;16.90;;;8.63;;
21959;SDS011;11144;43.030;25.108;2024-03-17T03:46:53;14.57;;;8.38;;
21959;SDS011;11144;43.030;25.108;2024-03-17T03:48:29;11.98;;;7.18;;
21959;SDS011;11144;43.030;25.108;2024-03-17T03:50:00;15.55;;;7.78;;
21959;SDS011;11144;43.030;25.108;2024-03-17T03:51:33;10.88;;;7.25;;
21959;SDS011;11144;43.030;25.108;2024-03-17T03:53:04;17.55;;;8.15;;
21959;SDS011;11144;43.030;25.108;2024-03-17T03:54:37;12.95;;;7.80;;
21959;SDS011;11144;43.030;25.108;2024-03-17T03:56:10;15.35;;;8.25;;
21959;SDS011;11144;43.030;25.108;2024-03-17T03:57:42;14.35;;;7.75;;
21959;SDS011;11144;43.030;25.108;2024-03-17T03:59:16;15.73;;;7.88;;
21959;SDS011;11144;43.030;25.108;2024-03-17T04:00:49;11.48;;;7.07;;
21959;SDS011;11144;43.030;25.108;2024-03-17T04:02:20;12.27;;;7.22;;
21959;SDS011;11144;43.030;25.108;2024-03-17T04:03:53;12.38;;;7.95;;
21959;SDS011;11144;43.030;25.108;2024-03-17T04:05:25;11.77;;;7.65;;
21959;SDS011;11144;43.030;25.108;2024-03-17T04:06:57;10.43;;;6.13;;
21959;SDS011;11144;43.030;25.108;2024-03-17T04:08:29;11.55;;;6.32;;
21959;SDS011;11144;43.030;25.108;2024-03-17T04:10:01;18.42;;;7.50;;
21959;SDS011;11144;43.030;25.108;2024-03-17T04:11:34;13.57;;;7.68;;
21959;SDS011;11144;43.030;25.108;2024-03-17T04:13:06;14.45;;;7.18;;
21959;SDS011;11144;43.030;25.108;2024-03-17T04:14:39;11.35;;;6.63;;
21959;SDS011;11144;43.030;25.108;2024-03-17T04:16:10;12.65;;;7.72;;
21959;SDS011;11144;43.030;25.108;2024-03-17T04:17:42;13.60;;;7.28;;
21959;SDS011;11144;43.030;25.108;2024-03-17T04:19:14;12.60;;;7.30;;
21959;SDS011;11144;43.030;25.108;2024-03-17T04:20:47;11.75;;;6.80;;
21959;SDS011;11144;43.030;25.108;2024-03-17T04:22:19;13.23;;;7.05;;
21959;SDS011;11144;43.030;25.108;2024-03-17T04:23:52;11.85;;;6.88;;
21959;SDS011;11144;43.030;25.108;2024-03-17T04:25:23;10.88;;;6.35;;
21959;SDS011;11144;43.030;25.108;2024-03-17T04:26:57;13.68;;;7.60;;
21959;SDS011;11144;43.030;25.108;2024-03-17T04:28:28;12.52;;;6.88;;
21959;SDS011;11144;43.030;25.108;2024-03-17T04:30:01;12.60;;;7.60;;
21959;SDS011;11144;43.030;25.108;2024-03-17T04:31:36;16.52;;;8.70;;
21959;SDS011;11144;43.030;25.108;2024-03-17T04:33:09;29.77;;;16.33;;
21959;SDS011;11144;43.030;25.108;2024-03-17T04:34:40;94.93;;;50.55;;
21959;SDS011;11144;43.030;25.108;2024-03-17T04:36:13;23.38;;;12.23;;
21959;SDS011;11144;43.030;25.108;2024-03-17T04:37:45;12.13;;;8.20;;
21959;SDS011;11144;43.030;25.108;2024-03-17T04:39:17;12.45;;;7.30;;
21959;SDS011;11144;43.030;25.108;2024-03-17T04:40:49;10.77;;;6.70;;
21959;SDS011;11144;43.030;25.108;2024-03-17T04:42:23;18.45;;;7.05;;
21959;SDS011;11144;43.030;25.108;2024-03-17T04:43:54;12.85;;;7.63;;
21959;SDS011;11144;43.030;25.108;2024-03-17T04:45:28;12.35;;;6.60;;
21959;SDS011;11144;43.030;25.108;2024-03-17T04:46:59;12.38;;;6.78;;
21959;SDS011;11144;43.030;25.108;2024-03-17T04:48:32;12.45;;;7.03;;
21959;SDS011;11144;43.030;25.108;2024-03-17T04:50:04;15.35;;;6.45;;
21959;SDS011;11144;43.030;25.108;2024-03-17T04:51:37;14.32;;;7.55;;
21959;SDS011;11144;43.030;25.108;2024-03-17T04:53:08;18.80;;;10.45;;
21959;SDS011;11144;43.030;25.108;2024-03-17T04:54:41;13.07;;;8.02;;
21959;SDS011;11144;43.030;25.108;2024-03-17T04:56:13;19.10;;;8.15;;
21959;SDS011;11144;43.030;25.108;2024-03-17T04:57:47;19.27;;;8.98;;
21959;SDS011;11144;43.030;25.108;2024-03-17T04:59:19;22.20;;;10.57;;
21959;SDS011;11144;43.030;25.108;2024-03-17T05:00:51;22.63;;;11.40;;
21959;SDS011;11144;43.030;25.108;2024-03-17T05:02:22;25.23;;;11.63;;
21959;SDS011;11144;43.030;25.108;2024-03-17T05:03:55;19.13;;;10.00;;
21959;SDS011;11144;43.030;25.108;2024-03-17T05:05:27;25.17;;;11.90;;
21959;SDS011;11144;43.030;25.108;2024-03-17T05:07:00;25.80;;;11.75;;
21959;SDS011;11144;43.030;25.108;2024-03-17T05:08:32;19.98;;;10.00;;
21959;SDS011;11144;43.030;25.108;2024-03-17T05:10:05;18.92;;;9.10;;
21959;SDS011;11144;43.030;25.108;2024-03-17T05:11:38;17.77;;;9.05;;
21959;SDS011;11144;43.030;25.108;2024-03-17T05:13:11;25.30;;;13.77;;
21959;SDS011;11144;43.030;25.108;2024-03-17T05:14:43;31.92;;;13.30;;
21959;SDS011;11144;43.030;25.108;2024-03-17T05:16:15;28.85;;;12.77;;
21959;SDS011;11144;43.030;25.108;2024-03-17T05:17:47;30.45;;;15.48;;
21959;SDS011;11144;43.030;25.108;2024-03-17T05:19:18;27.95;;;16.77;;
21959;SDS011;11144;43.030;25.108;2024-03-17T05:20:56;30.35;;;17.27;;
21959;SDS011;11144;43.030;25.108;2024-03-17T05:22:29;34.22;;;18.80;;
21959;SDS011;11144;43.030;25.108;2024-03-17T05:24:01;28.95;;;16.20;;
21959;SDS011;11144;43.030;25.108;2024-03-17T05:25:33;30.27;;;16.52;;
21959;SDS011;11144;43.030;25.108;2024-03-17T05:27:07;35.33;;;18.35;;
21959;SDS011;11144;43.030;25.108;2024-03-17T05:28:41;31.95;;;19.13;;
21959;SDS011;11144;43.030;25.108;2024-03-17T05:30:13;27.23;;;17.50;;
21959;SDS011;11144;43.030;25.108;2024-03-17T05:31:45;40.38;;;24.73;;
21959;SDS011;11144;43.030;25.108;2024-03-17T05:33:17;50.75;;;32.28;;
21959;SDS011;11144;43.030;25.108;2024-03-17T05:34:52;44.47;;;29.70;;
21959;SDS011;11144;43.030;25.108;2024-03-17T05:36:24;43.35;;;27.90;;
21959;SDS011;11144;43.030;25.108;2024-03-17T05:37:55;31.45;;;20.13;;
21959;SDS011;11144;43.030;25.108;2024-03-17T05:39:27;32.42;;;20.50;;
21959;SDS011;11144;43.030;25.108;2024-03-17T05:40:59;38.75;;;21.70;;
21959;SDS011;11144;43.030;25.108;2024-03-17T05:42:33;40.25;;;26.88;;
21959;SDS011;11144;43.030;25.108;2024-03-17T05:44:06;47.75;;;30.00;;
21959;SDS011;11144;43.030;25.108;2024-03-17T05:45:38;45.05;;;28.92;;
21959;SDS011;11144;43.030;25.108;2024-03-17T05:47:09;38.53;;;23.52;;
21959;SDS011;11144;43.030;25.108;2024-03-17T05:48:43;33.70;;;20.73;;
21959;SDS011;11144;43.030;25.108;2024-03-17T05:50:14;39.05;;;25.52;;
21959;SDS011;11144;43.030;25.108;2024-03-17T05:51:46;38.08;;;25.77;;
21959;SDS011;11144;43.030;25.108;2024-03-17T05:53:18;38.53;;;24.50;;
21959;SDS011;11144;43.030;25.108;2024-03-17T05:54:50;26.63;;;15.43;;
21959;SDS011;11144;43.030;25.108;2024-03-17T05:56:22;35.20;;;20.77;;
21959;SDS011;11144;43.030;25.108;2024-03-17T05:57:54;23.73;;;15.98;;
21959;SDS011;11144;43.030;25.108;2024-03-17T05:59:28;27.63;;;18.90;;
21959;SDS011;11144;43.030;25.108;2024-03-17T06:01:01;25.90;;;16.35;;
21959;SDS011;11144;43.030;25.108;2024-03-17T06:02:34;29.80;;;19.83;;
21959;SDS011;11144;43.030;25.108;2024-03-17T06:04:05;28.80;;;18.13;;
21959;SDS011;11144;43.030;25.108;2024-03-17T06:05:38;22.30;;;14.90;;
21959;SDS011;11144;43.030;25.108;2024-03-17T06:07:11;18.52;;;12.02;;
21959;SDS011;11144;43.030;25.108;2024-03-17T06:08:43;17.33;;;11.23;;
21959;SDS011;11144;43.030;25.108;2024-03-17T06:10:15;15.25;;;10.75;;
21959;SDS011;11144;43.030;25.108;2024-03-17T06:11:47;17.75;;;9.60;;
21959;SDS011;11144;43.030;25.108;2024-03-17T06:13:19;18.15;;;10.70;;
21959;SDS011;11144;43.030;25.108;2024-03-17T06:14:52;15.70;;;10.00;;
21959;SDS011;11144;43.030;25.108;2024-03-17T06:16:24;13.82;;;9.23;;
21959;SDS011;11144;43.030;25.108;2024-03-17T06:17:56;14.10;;;8.98;;
21959;SDS011;11144;43.030;25.108;2024-03-17T06:19:27;12.75;;;8.88;;
21959;SDS011;11144;43.030;25.108;2024-03-17T06:21:00;12.15;;;8.40;;
21959;SDS011;11144;43.030;25.108;2024-03-17T06:22:32;11.70;;;8.05;;
21959;SDS011;11144;43.030;25.108;2024-03-17T06:24:04;10.15;;;7.65;;
21959;SDS011;11144;43.030;25.108;2024-03-17T06:25:38;16.13;;;8.43;;
21959;SDS011;11144;43.030;25.108;2024-03-17T06:27:11;15.25;;;8.88;;
21959;SDS011;11144;43.030;25.108;2024-03-17T06:28:44;15.38;;;9.07;;
21959;SDS011;11144;43.030;25.108;2024-03-17T06:30:17;11.45;;;8.77;;
21959;SDS011;11144;43.030;25.108;2024-03-17T06:31:50;14.02;;;9.00;;
21959;SDS011;11144;43.030;25.108;2024-03-17T06:33:21;17.08;;;8.88;;
21959;SDS011;11144;43.030;25.108;2024-03-17T06:34:53;12.75;;;9.13;;
21959;SDS011;11144;43.030;25.108;2024-03-17T06:36:25;12.90;;;8.30;;
21959;SDS011;11144;43.030;25.108;2024-03-17T06:37:58;10.82;;;8.07;;
21959;SDS011;11144;43.030;25.108;2024-03-17T06:39:30;12.45;;;9.05;;
21959;SDS011;11144;43.030;25.108;2024-03-17T06:41:03;11.50;;;8.35;;
21959;SDS011;11144;43.030;25.108;2024-03-17T06:42:34;13.32;;;8.10;;
21959;SDS011;11144;43.030;25.108;2024-03-17T06:44:07;15.38;;;8.80;;
21959;SDS011;11144;43.030;25.108;2024-03-17T06:45:41;13.52;;;9.23;;
21959;SDS011;11144;43.030;25.108;2024-03-17T06:47:12;13.02;;;8.20;;
21959;SDS011;11144;43.030;25.108;2024-03-17T06:48:45;11.13;;;8.50;;
21959;SDS011;11144;43.030;25.108;2024-03-17T06:50:17;11.32;;;8.10;;
21959;SDS011;11144;43.030;25.108;2024-03-17T06:51:49;13.38;;;8.75;;
21959;SDS011;11144;43.030;25.108;2024-03-17T06:53:21;12.50;;;8.20;;
21959;SDS011;11144;43.030;25.108;2024-03-17T06:54:52;12.27;;;7.85;;
21959;SDS011;11144;43.030;25.108;2024-03-17T06:56:25;12.35;;;8.05;;
21959;SDS011;11144;43.030;25.108;2024-03-17T06:57:56;12.95;;;9.20;;
21959;SDS011;11144;43.030;25.108;2024-03-17T06:59:28;13.88;;;8.68;;
21959;SDS011;11144;43.030;25.108;2024-03-17T07:01:05;22.02;;;14.93;;
21959;SDS011;11144;43.030;25.108;2024-03-17T07:02:41;16.27;;;10.50;;
21959;SDS011;11144;43.030;25.108;2024-03-17T07:04:14;18.02;;;10.80;;
21959;SDS011;11144;43.030;25.108;2024-03-17T07:05:50;13.93;;;8.98;;
21959;SDS011;11144;43.030;25.108;2024-03-17T07:07:22;18.70;;;9.77;;
21959;SDS011;11144;43.030;25.108;2024-03-17T07:08:55;12.52;;;8.55;;
21959;SDS011;11144;43.030;25.108;2024-03-17T07:10:26;13.38;;;8.35;;
21959;SDS011;11144;43.030;25.108;2024-03-17T07:11:58;14.93;;;9.68;;
21959;SDS011;11144;43.030;25.108;2024-03-17T07:13:30;15.65;;;11.10;;
21959;SDS011;11144;43.030;25.108;2024-03-17T07:15:04;11.55;;;8.70;;
21959;SDS011;11144;43.030;25.108;2024-03-17T07:16:37;20.23;;;12.27;;
21959;SDS011;11144;43.030;25.108;2024-03-17T07:18:09;14.43;;;11.57;;
21959;SDS011;11144;43.030;25.108;2024-03-17T07:19:41;15.77;;;9.88;;
21959;SDS011;11144;43.030;25.108;2024-03-17T07:21:13;11.95;;;8.48;;
21959;SDS011;11144;43.030;25.108;2024-03-17T07:22:45;14.07;;;9.13;;
21959;SDS011;11144;43.030;25.108;2024-03-17T07:24:17;14.40;;;8.45;;
21959;SDS011;11144;43.030;25.108;2024-03-17T07:25:51;15.55;;;9.50;;
21959;SDS011;11144;43.030;25.108;2024-03-17T07:27:25;14.70;;;9.77;;
21959;SDS011;11144;43.030;25.108;2024-03-17T07:28:56;13.10;;;9.40;;
21959;SDS011;11144;43.030;25.108;2024-03-17T07:30:28;13.30;;;9.95;;
21959;SDS011;11144;43.030;25.108;2024-03-17T07:32:02;11.60;;;9.63;;
21959;SDS011;11144;43.030;25.108;2024-03-17T07:33:34;14.10;;;9.40;;
21959;SDS011;11144;43.030;25.108;2024-03-17T07:35:06;16.20;;;10.10;;
21959;SDS011;11144;43.030;25.108;2024-03-17T07:36:39;11.82;;;9.23;;
21959;SDS011;11144;43.030;25.108;2024-03-17T07:38:10;13.20;;;9.32;;
21959;SDS011;11144;43.030;25.108;2024-03-17T07:39:43;14.00;;;10.20;;
21959;SDS011;11144;43.030;25.108;2024-03-17T07:41:14;12.93;;;9.25;;
21959;SDS011;11144;43.030;25.108;2024-03-17T07:42:46;15.88;;;10.00;;
21959;SDS011;11144;43.030;25.108;2024-03-17T07:44:18;14.68;;;10.73;;
21959;SDS011;11144;43.030;25.108;2024-03-17T07:45:57;14.73;;;11.10;;
21959;SDS011;11144;43.030;25.108;2024-03-17T07:47:33;15.02;;;9.98;;
21959;SDS011;11144;43.030;25.108;2024-03-17T07:49:07;13.45;;;9.88;;
21959;SDS011;11144;43.030;25.108;2024-03-17T07:50:39;14.20;;;9.68;;
21959;SDS011;11144;43.030;25.108;2024-03-17T07:52:11;15.35;;;10.27;;
21959;SDS011;11144;43.030;25.108;2024-03-17T07:53:43;14.70;;;9.68;;
21959;SDS011;11144;43.030;25.108;2024-03-17T07:55:18;15.50;;;10.40;;
21959;SDS011;11144;43.030;25.108;2024-03-17T07:56:49;14.35;;;9.52;;
21959;SDS011;11144;43.030;25.108;2024-03-17T07:58:22;18.88;;;12.38;;
21959;SDS011;11144;43.030;25.108;2024-03-17T07:59:53;16.13;;;10.65;;
21959;SDS011;11144;43.030;25.108;2024-03-17T08:01:26;14.07;;;10.20;;
21959;SDS011;11144;43.030;25.108;2024-03-17T08:02:59;15.85;;;10.68;;
21959;SDS011;11144;43.030;25.108;2024-03-17T08:04:31;14.73;;;9.82;;
21959;SDS011;11144;43.030;25.108;2024-03-17T08:06:03;15.85;;;11.40;;
21959;SDS011;11144;43.030;25.108;2024-03-17T08:07:36;21.23;;;13.50;;
21959;SDS011;11144;43.030;25.108;2024-03-17T08:09:08;22.25;;;13.13;;
21959;SDS011;11144;43.030;25.108;2024-03-17T08:10:41;19.17;;;11.75;;
21959;SDS011;11144;43.030;25.108;2024-03-17T08:12:12;12.68;;;9.18;;
21959;SDS011;11144;43.030;25.108;2024-03-17T08:13:45;37.70;;;24.30;;
21959;SDS011;11144;43.030;25.108;2024-03-17T08:15:17;16.88;;;11.23;;
21959;SDS011;11144;43.030;25.108;2024-03-17T08:16:49;14.60;;;10.23;;
21959;SDS011;11144;43.030;25.108;2024-03-17T08:18:23;22.60;;;13.98;;
21959;SDS011;11144;43.030;25.108;2024-03-17T08:19:54;14.80;;;9.38;;
21959;SDS011;11144;43.030;25.108;2024-03-17T08:21:27;12.25;;;9.05;;
21959;SDS011;11144;43.030;25.108;2024-03-17T08:23:00;13.70;;;9.55;;
21959;SDS011;11144;43.030;25.108;2024-03-17T08:24:32;13.25;;;8.75;;
21959;SDS011;11144;43.030;25.108;2024-03-17T08:26:04;11.15;;;8.38;;
21959;SDS011;11144;43.030;25.108;2024-03-17T08:27:37;10.48;;;8.35;;
21959;SDS011;11144;43.030;25.108;2024-03-17T08:29:08;12.88;;;8.45;;
21959;SDS011;11144;43.030;25.108;2024-03-17T08:30:40;10.43;;;7.85;;
21959;SDS011;11144;43.030;25.108;2024-03-17T08:32:12;11.63;;;8.18;;
21959;SDS011;11144;43.030;25.108;2024-03-17T08:33:46;11.98;;;7.28;;
21959;SDS011;11144;43.030;25.108;2024-03-17T08:35:18;10.57;;;7.07;;
21959;SDS011;11144;43.030;25.108;2024-03-17T08:36:50;12.70;;;7.30;;
21959;SDS011;11144;43.030;25.108;2024-03-17T08:38:22;10.13;;;7.00;;
21959;SDS011;11144;43.030;25.108;2024-03-17T08:39:55;10.52;;;7.25;;
21959;SDS011;11144;43.030;25.108;2024-03-17T08:41:26;8.75;;;6.90;;
21959;SDS011;11144;43.030;25.108;2024-03-17T08:43:01;9.13;;;7.15;;
21959;SDS011;11144;43.030;25.108;2024-03-17T08:44:32;10.50;;;7.82;;
21959;SDS011;11144;43.030;25.108;2024-03-17T08:46:06;12.13;;;8.23;;
21959;SDS011;11144;43.030;25.108;2024-03-17T08:47:38;9.85;;;7.63;;
21959;SDS011;11144;43.030;25.108;2024-03-17T08:49:12;12.30;;;7.60;;
21959;SDS011;11144;43.030;25.108;2024-03-17T08:50:49;9.50;;;7.80;;
21959;SDS011;11144;43.030;25.108;2024-03-17T08:52:21;9.23;;;6.05;;
21959;SDS011;11144;43.030;25.108;2024-03-17T08:53:53;9.05;;;6.80;;
21959;SDS011;11144;43.030;25.108;2024-03-17T08:55:25;8.88;;;6.60;;
21959;SDS011;11144;43.030;25.108;2024-03-17T08:56:57;9.55;;;7.00;;
21959;SDS011;11144;43.030;25.108;2024-03-17T08:58:30;10.90;;;7.90;;